Station: Noonamah

  Atmospheric Gas Attenuation - ITU Rec 676-11   --------------- db/100km ---------------
Date Time Temp RH % AH g/m3 Dew Point Wind Direction Speed kph Gust kph Barometer mB Rainfall Since 9am 24GHz 47GHz 76GHz 122GHz 134GHz 241GHz
07 08:20 22 83 16.11 19.1 2 4 1013.1 0 35.1 36.0 66.6 175.9 189.1 656.2
07 08:10 21.7 86 16.4 19.2 6 7 1013.1 0 35.7 36.7 68.2 180.2 194.2 674.0
07 08:00 21.6 88 16.69 19.5 6 9 1012.8 0 36.4 37.2 69.6 183.9 198.9 690.1
07 07:50 21.6 89 16.88 19.7 6 9 1013.1 0 36.8 37.6 70.5 186.3 201.8 700.4
07 07:40 20.9 90 16.39 19.2 7 11 1013.1 0 35.8 37.0 68.8 181.9 196.2 680.6
07 07:30 20.5 91 16.19 19 6 9 1012.5 0 35.4 36.8 68.2 180.3 194.1 673.3
07 07:20 20.4 92 16.27 19 6 6 1013.1 0 35.6 37.0 68.7 181.6 195.6 678.7
07 07:10 20.2 94 16.43 19.2 6 9 1013.1 0 35.9 37.4 69.7 184.1 198.6 689.1
07 07:00 20.2 95 16.61 19.4 6 9 1012.1 0 36.3 37.7 70.5 186.3 201.3 698.4
07 06:50 20.2 96 16.78 19.5 6 6 1013.1 0 36.7 38.0 71.3 188.6 204.1 708.1
07 06:40 19.9 96 16.49 19.2 7 7 1013.1 0 36.1 37.6 70.2 185.6 200.4 695.1
07 06:30 19.6 96 16.2 18.9 7 11 1011.7 0 35.5 37.1 69.0 182.5 196.5 681.5
07 06:20 19.4 97 16.18 18.9 9 13 1013.1 0 35.5 37.3 69.2 182.9 196.9 682.9
07 06:10 18.7 96 15.37 18 7 9 1013.1 0 33.8 36.0 66.0 174.4 186.2 645.5
07 06:00 17.8 92 13.96 16.5 0 6 1011.2 0 30.8 33.7 60.1 158.7 166.7 577.6
07 05:50 17.6 91 13.65 16.2 0 0 1013.1 0 30.2 33.3 59.0 155.7 162.8 563.9
07 05:40 17.7 91 13.73 16.3 0 0 1013.1 0 30.3 33.4 59.3 156.4 163.8 567.3
07 05:30 17.8 92 13.96 16.5 0 0 1010.9 0 30.8 33.7 60.1 158.7 166.7 577.5
07 05:20 17.7 91 13.73 16.2 0 0 1013.1 0 30.3 33.4 59.3 156.4 163.8 567.3
07 05:10 17.8 91 13.81 16.3 0 0 1013.1 0 30.5 33.5 59.6 157.2 164.7 570.7
07 04:50 17.6 87 13.05 15.5 0 0 1013.1 0 28.9 32.2 56.3 148.5 154.0 533.2
07 04:40 17.6 87 13.05 15.4 0 0 1013.1 0 28.9 32.2 56.3 148.5 154.0 533.2
07 04:30 17.9 89 13.59 16.1 0 0 1010.3 0 30.0 32.9 58.3 154.0 160.9 557.4
07 04:20 17.9 87 13.28 15.7 0 0 1013.1 0 29.4 32.5 57.1 150.6 156.7 542.8
07 04:10 17.9 87 13.28 15.8 0 0 1013.1 0 29.4 32.5 57.1 150.6 156.7 542.8
07 04:00 18 87 13.36 15.8 0 0 1010.3 0 29.5 32.5 57.2 151.0 157.3 545.0
07 03:50 18.1 87 13.44 16 0 0 1013.1 0 29.7 32.7 57.7 152.1 158.6 549.5
07 03:40 18.1 87 13.44 16 0 0 1013.1 0 29.7 32.7 57.7 152.1 158.6 549.5
07 03:30 18.1 87 13.44 15.9 0 0 1010.5 0 29.7 32.6 57.5 151.8 158.3 548.4
07 03:20 18.2 87 13.52 16.1 0 0 1013.1 0 29.9 32.8 57.9 152.9 159.6 552.8
07 03:10 18.3 87 13.6 16.2 0 0 1013.1 0 30.0 32.9 58.2 153.6 160.6 556.2
07 03:00 18.2 88 13.68 16.2 0 0 1010.5 0 30.2 33.0 58.5 154.5 161.6 559.9
07 02:50 18.8 87 14.01 16.7 0 0 1013.1 0 30.9 33.5 59.7 157.5 165.5 573.5
07 02:40 18.8 87 14.01 16.7 0 0 1013.1 0 30.9 33.5 59.7 157.5 165.5 573.5
07 02:30 18.9 89 14.42 17 2 4 1010.6 0 31.7 34.1 61.3 161.9 171.0 592.8
07 02:20 18.8 89 14.33 16.9 0 0 1013.1 0 31.6 34.1 61.1 161.4 170.2 590.0
07 02:10 18.8 89 14.33 16.9 0 0 1013.1 0 31.6 34.1 61.1 161.4 170.2 590.0
07 02:00 18.8 88 14.17 16.8 4 9 1010.7 0 31.2 33.7 60.3 159.1 167.6 580.7
07 01:50 19.5 86 14.43 17.1 0 0 1013.1 0 31.7 34.0 61.0 161.1 170.1 589.7
07 01:40 19.8 89 15.2 17.9 0 0 1013.1 0 33.3 35.2 64.3 169.8 180.9 627.3
07 01:30 19.5 88 14.77 17.5 0 0 1010.8 0 32.4 34.5 62.4 164.9 174.9 606.3
07 01:20 19.2 85 14.01 16.6 0 0 1013.1 0 30.8 33.3 59.4 156.7 164.6 570.5
07 01:10 19.3 86 14.26 16.9 0 0 1013.1 0 31.4 33.7 60.4 159.5 168.1 582.5
07 01:00 19.2 85 14.01 16.6 0 0 1011.1 0 30.8 33.2 59.3 156.4 164.4 569.6
07 00:50 19.3 85 14.1 16.7 0 0 1013.1 0 31.0 33.4 59.7 157.6 165.7 574.3
07 00:40 19.2 84 13.85 16.4 0 0 1013.1 0 30.5 33.0 58.7 154.8 162.3 562.3
07 00:30 19.4 84 14.01 16.6 0 0 1011.3 0 30.8 33.2 59.1 156.1 164.0 568.2
07 00:20 19.5 83 13.93 16.5 0 0 1013.1 0 30.6 33.1 58.8 155.1 162.8 564.2
07 00:10 19.8 85 14.52 17.2 0 0 1013.1 0 31.9 34.0 61.2 161.6 170.8 592.0
07 00:00 19.9 84 14.43 17.1 0 0 1011.4 0 31.7 33.7 60.6 160.0 169.0 585.9
06 23:50 20.1 81 14.08 16.7 0 0 1013.1 0 30.9 33.1 59.0 155.7 163.7 567.4
06 23:40 20.4 82 14.5 17.2 0 0 1013.1 0 31.8 33.7 60.6 160.1 169.1 586.4
06 23:30 20.5 80 14.23 16.9 0 0 1011.6 0 31.2 33.1 59.3 156.5 164.8 571.3
06 23:20 20.9 79 14.39 17.1 0 0 1013.1 0 31.5 33.3 59.7 157.7 166.4 577.0
06 23:10 20.9 78 14.2 16.9 0 0 1013.1 0 31.1 33.0 58.9 155.5 163.7 567.5
06 23:00 21.2 78 14.45 17.2 0 0 1011.7 0 31.6 33.3 59.7 157.6 166.5 577.2
06 22:50 21.7 75 14.31 17.2 0 0 1013.1 0 31.3 32.9 58.8 155.2 163.5 567.1
06 22:40 22 74 14.36 17.3 0 0 1013.1 0 31.4 32.9 58.8 155.1 163.6 567.3
06 22:30 22.3 74 14.61 17.4 2 4 1011.6 0 31.9 33.1 59.5 157.2 166.3 576.9
06 22:20 22.5 74 14.78 17.6 4 4 1013.1 0 32.2 33.4 60.2 159.0 168.5 584.5
06 22:10 22.9 73 14.92 17.8 0 0 1013.1 0 32.5 33.5 60.5 159.8 169.6 588.4
06 22:00 23.4 73 15.35 18.3 0 4 1011.5 0 33.4 34.0 61.9 163.5 174.4 605.2
06 21:50 23.8 71 15.27 18.2 4 4 1013.1 0 33.2 33.8 61.3 162.0 172.6 598.8
06 21:40 24 71 15.45 18.4 4 4 1013.1 0 33.5 34.0 62.0 163.6 174.7 606.2
06 21:30 24.1 71 15.53 18.5 4 6 1011.2 0 33.7 34.0 62.1 164.1 175.3 608.5
06 21:20 24.3 69 15.27 18.4 6 6 1013.1 0 33.1 33.6 60.9 160.9 171.4 594.9
06 21:10 24.5 69 15.44 18.4 4 7 1013.1 0 33.5 33.8 61.5 162.5 173.4 601.8
06 21:00 24.7 69 15.62 18.6 6 9 1010.8 0 33.8 33.9 62.0 163.8 175.2 608.1
06 20:50 24.9 67 15.34 18.5 7 11 1013.1 0 33.2 33.4 60.8 160.5 171.1 593.8
06 20:40 25 67 15.42 18.6 7 9 1013.1 0 33.4 33.5 61.0 161.2 172.0 596.9
06 20:30 25.1 67 15.51 18.5 7 15 1010.6 0 33.6 33.6 61.2 161.7 172.7 599.4
06 20:20 25.3 67 15.69 18.7 9 11 1013.1 0 33.9 33.9 61.9 163.7 175.1 607.8
06 20:10 25.4 65 15.3 18.5 9 13 1013.1 0 33.1 33.2 60.2 159.0 169.4 588.0
06 20:00 25.6 66 15.71 18.8 9 15 1010.3 0 33.9 33.7 61.6 162.9 174.3 605.2
06 19:50 25.7 65 15.56 18.6 7 9 1013.1 0 33.6 33.5 61.1 161.3 172.4 598.3
06 19:40 25.9 63 15.25 18.5 9 15 1013.1 0 32.9 32.9 59.6 157.4 167.6 581.8
06 19:30 26.2 63 15.51 18.6 9 17 1009.9 0 33.5 33.1 60.3 159.3 170.1 590.7
06 19:20 26.4 60 14.94 18.2 9 11 1013.1 0 32.2 32.2 57.9 153.0 162.3 563.3
06 19:10 26.7 59 14.93 18.2 7 9 1013.1 0 32.2 32.1 57.7 152.3 161.5 560.7
06 19:00 27 59 15.19 18.3 9 17 1009.6 0 32.7 32.3 58.3 154.1 164.0 569.3
06 18:50 27.2 58 15.09 18.4 9 13 1013.1 0 32.5 32.2 58.0 153.1 162.6 564.6
06 18:40 27.4 59 15.52 18.9 6 9 1013.1 0 33.4 32.8 59.6 157.4 168.0 583.5
06 18:30 27.7 59 15.78 19 11 19 1009.3 0 33.9 33.0 60.2 159.2 170.4 591.9
06 18:20 28.1 57 15.59 19 11 17 1013.1 0 33.5 32.6 59.3 156.8 167.5 581.5
06 18:10 28.5 55 15.37 18.8 17 20 1013.1 0 33.0 32.1 58.1 153.6 163.6 568.3
06 18:00 28.9 54 15.43 18.9 11 17 1009.2 0 33.1 31.9 57.9 153.0 163.1 566.6
06 17:50 29 53 15.23 18.7 11 17 1013.1 0 32.6 31.7 57.2 151.1 160.7 558.2
06 17:40 29.2 51 14.81 18.3 11 15 1013.1 0 31.8 31.0 55.4 146.3 154.8 537.6
06 17:30 29.6 50 14.84 18.1 15 22 1009 0 31.8 30.7 55.0 145.3 154.0 534.7
06 17:20 29.7 49 14.62 18.1 13 17 1013.1 0 31.3 30.5 54.3 143.3 151.4 525.7
06 17:10 29.9 49 14.78 18.3 15 19 1013.1 0 31.6 30.7 54.8 144.7 153.1 531.5
06 17:00 30.1 49 14.94 18.2 15 24 1008.8 0 32.0 30.7 55.1 145.4 154.2 535.7
06 16:50 30.1 49 14.94 18.2 11 17 1013.1 0 32.0 30.9 55.3 146.0 154.7 537.4
06 16:40 30.3 47 14.49 18 9 13 1013.1 0 31.0 30.1 53.4 140.9 148.6 516.0
06 16:30 30.7 47 14.8 18.1 15 26 1008.6 0 31.6 30.3 54.1 142.9 151.2 525.3
06 16:20 30.9 46 14.65 18.2 17 22 1013.1 0 31.3 30.1 53.6 141.5 149.5 519.1
06 16:10 30.6 47 14.72 18 15 20 1013.1 0 31.5 30.3 54.1 142.8 150.9 524.2
06 16:00 30.7 47 14.8 18.4 15 24 1008.5 0 31.6 30.3 54.1 142.8 151.2 525.3
06 15:50 30.9 45 14.33 17.9 11 15 1013.1 0 30.6 29.6 52.4 138.2 145.4 505.1
06 15:40 30.9 45 14.33 17.9 15 19 1013.1 0 30.6 29.6 52.4 138.2 145.4 505.1

Last Refresh: 07-Aug-2020 08:26:02

Most of the information presented on this site is sourced from the Bureau of Meteorology.  Copyright in all material sourced from the Bureau of Meteorology resides with the Commonwealth of Australia.